Gardar, North Dakota
Current Conditions -  °F | °C
As of 8:35 AM on Tuesday 21 Oct 2014 (Local Time) from K2C8 Reporting Station
Clear Clear  
Wind Chill: 31°   Ceiling: Unl
Heat Index: 37°   Visibility: 10mi
Dew Point: 36°   Wind: 9mph
Humidity: 93%   Direction: 150°SSE
Pressure: 29.99"   Gusts: NA
Location:  48.4822°N, 97.9139°W
Report Text: K2C8 211335Z AUTO 15008KT 10SM CLR 03/02 A2999 RMK AO2
Loading
Personal Weather Stations






























Interactive Weather Map
Tropical Storm Tracking
New forecast layout! Learn more

10-Day Weather Forecast

Advertisements
Track Severe Weather on mobile